createdAt,value
2023-05-31T00:04:21.265Z,17.31
2023-05-31T00:06:47.828Z,17.20
2023-05-31T00:09:14.356Z,17.11
2023-05-31T00:11:40.993Z,17.09
2023-05-31T00:14:07.694Z,16.98
2023-05-31T00:19:07.754Z,16.76
2023-05-31T00:21:34.405Z,16.67
2023-05-31T00:24:00.953Z,16.59
2023-05-31T00:26:27.788Z,16.49
2023-05-31T00:28:54.622Z,16.42
2023-05-31T00:31:21.310Z,16.36
2023-05-31T00:33:49.865Z,16.26
2023-05-31T00:36:16.454Z,16.12
2023-05-31T00:38:42.969Z,16.16
2023-05-31T00:41:12.971Z,16.14
2023-05-31T00:43:39.564Z,16.19
2023-05-31T00:46:07.238Z,16.18
2023-05-31T00:48:40.751Z,16.16
2023-05-31T00:51:07.367Z,16.13
2023-05-31T00:53:34.386Z,16.10
2023-05-31T00:56:01.870Z,15.93
2023-05-31T00:58:29.055Z,15.80
2023-05-31T01:01:00.098Z,15.80
2023-05-31T01:03:27.093Z,15.85
2023-05-31T01:05:53.791Z,15.81
2023-05-31T01:08:21.806Z,15.80
2023-05-31T01:10:55.229Z,15.70
2023-05-31T01:13:28.924Z,15.63
2023-05-31T01:16:04.282Z,15.58
2023-05-31T01:18:42.736Z,15.61
2023-05-31T01:21:14.352Z,15.85
2023-05-31T01:24:11.801Z,15.81
2023-05-31T01:26:51.463Z,15.74
2023-05-31T01:29:25.968Z,15.74
2023-05-31T01:31:55.617Z,15.72
2023-05-31T01:34:22.664Z,15.69
2023-05-31T01:36:49.187Z,15.67
2023-05-31T01:39:18.556Z,15.66
2023-05-31T01:41:47.628Z,15.65
2023-05-31T01:44:16.887Z,15.65
2023-05-31T01:46:44.094Z,15.62
2023-05-31T01:49:11.751Z,15.61
2023-05-31T01:51:40.775Z,15.61
2023-05-31T01:54:09.187Z,15.57
2023-05-31T01:56:40.685Z,15.55
2023-05-31T01:59:08.791Z,15.56
2023-05-31T02:01:37.612Z,15.55
2023-05-31T02:04:04.623Z,15.47
2023-05-31T02:06:32.901Z,15.37
2023-05-31T02:09:01.687Z,15.15
2023-05-31T02:11:28.373Z,14.88
2023-05-31T02:13:54.921Z,14.79
2023-05-31T02:16:23.379Z,14.69
2023-05-31T02:18:52.416Z,14.62
2023-05-31T02:21:19.115Z,14.57
2023-05-31T02:23:46.237Z,14.51
2023-05-31T02:26:12.772Z,14.46
2023-05-31T02:28:41.389Z,14.32
2023-05-31T02:31:09.784Z,14.45
2023-05-31T02:33:36.419Z,14.44
2023-05-31T02:36:03.090Z,14.39
2023-05-31T02:38:33.320Z,14.43
2023-05-31T02:41:00.057Z,14.44
2023-05-31T02:43:26.894Z,14.39
2023-05-31T02:45:53.753Z,14.28
2023-05-31T02:48:20.414Z,14.22
2023-05-31T02:50:47.341Z,14.02
2023-05-31T02:53:18.129Z,13.79
2023-05-31T02:55:44.855Z,13.66
2023-05-31T02:58:11.882Z,13.69
2023-05-31T03:00:38.657Z,13.57
2023-05-31T03:03:08.824Z,13.50
2023-05-31T03:05:35.486Z,13.36
2023-05-31T03:08:03.826Z,13.47
2023-05-31T03:10:30.401Z,13.52
2023-05-31T03:12:56.995Z,13.51
2023-05-31T03:15:27.475Z,13.47
2023-05-31T03:17:54.114Z,13.40
2023-05-31T03:20:20.846Z,13.30
2023-05-31T03:22:47.600Z,13.04
2023-05-31T03:25:14.200Z,13.17
2023-05-31T03:27:40.840Z,13.14
2023-05-31T03:30:08.224Z,13.17
2023-05-31T03:32:36.251Z,13.32
2023-05-31T03:35:04.452Z,13.41
2023-05-31T03:37:32.890Z,13.19
2023-05-31T03:39:59.701Z,13.12
2023-05-31T03:42:26.433Z,13.11
2023-05-31T03:44:57.458Z,13.09
2023-05-31T03:47:24.184Z,12.94
2023-05-31T03:49:50.850Z,13.08
2023-05-31T03:52:23.464Z,12.93
2023-05-31T03:54:50.604Z,12.96
2023-05-31T03:57:17.366Z,12.79
2023-05-31T03:59:44.146Z,12.74
2023-05-31T04:02:10.974Z,12.97
2023-05-31T04:04:37.637Z,12.96
2023-05-31T04:07:04.723Z,13.04
2023-05-31T04:09:31.375Z,13.19
2023-05-31T04:11:58.041Z,13.35
2023-05-31T04:14:24.662Z,13.37
2023-05-31T04:16:51.251Z,13.30
2023-05-31T04:19:18.060Z,13.48
2023-05-31T04:21:44.783Z,13.44
2023-05-31T04:24:11.988Z,13.50
2023-05-31T04:26:38.811Z,13.52
2023-05-31T04:29:05.459Z,13.67
2023-05-31T04:31:50.007Z,13.73
2023-05-31T04:34:24.343Z,13.81
2023-05-31T04:36:51.447Z,13.86
2023-05-31T04:39:21.022Z,13.96
2023-05-31T04:41:47.982Z,13.96
2023-05-31T04:44:14.925Z,13.98
2023-05-31T04:46:44.158Z,14.12
2023-05-31T04:49:15.310Z,14.34
2023-05-31T04:51:42.240Z,14.37
2023-05-31T04:54:09.272Z,14.46
2023-05-31T04:56:40.366Z,14.53
2023-05-31T04:59:08.807Z,14.58
2023-05-31T05:01:36.994Z,14.70
2023-05-31T05:04:05.752Z,14.86
2023-05-31T05:06:32.517Z,14.94
2023-05-31T05:08:59.593Z,14.98
2023-05-31T05:11:28.584Z,15.04
2023-05-31T05:13:55.089Z,15.14
2023-05-31T05:16:23.974Z,15.18
2023-05-31T05:18:50.683Z,15.26
2023-05-31T05:21:17.218Z,15.36
2023-05-31T05:23:43.816Z,15.44
2023-05-31T05:26:12.531Z,15.58
2023-05-31T05:28:39.571Z,15.73
2023-05-31T05:31:06.157Z,16.10
2023-05-31T05:33:32.836Z,17.15
2023-05-31T05:35:59.524Z,18.47
2023-05-31T05:38:26.007Z,18.95
2023-05-31T05:40:59.321Z,19.11
2023-05-31T05:43:26.167Z,19.00
2023-05-31T05:45:52.745Z,19.31
2023-05-31T05:48:21.532Z,19.53
2023-05-31T05:50:48.558Z,19.90
2023-05-31T05:53:18.620Z,20.71
2023-05-31T05:55:57.413Z,21.02
2023-05-31T05:58:23.950Z,21.30
2023-05-31T06:00:50.488Z,21.16
2023-05-31T06:03:17.486Z,20.99
2023-05-31T06:05:44.601Z,21.10
2023-05-31T06:08:12.122Z,20.92
2023-05-31T06:10:39.096Z,20.78
2023-05-31T06:13:05.884Z,20.78
2023-05-31T06:18:24.883Z,20.77
2023-05-31T06:20:51.585Z,20.33
2023-05-31T06:23:18.192Z,20.18
2023-05-31T06:25:46.520Z,20.24
2023-05-31T06:28:13.585Z,20.35
2023-05-31T06:30:46.864Z,20.50
2023-05-31T06:33:19.814Z,20.59
2023-05-31T06:35:46.436Z,20.50
2023-05-31T06:38:17.768Z,20.39
2023-05-31T06:40:44.867Z,20.20
2023-05-31T06:43:12.035Z,20.05
2023-05-31T06:45:42.961Z,20.23
2023-05-31T06:48:12.205Z,20.56
2023-05-31T06:50:38.806Z,20.83
2023-05-31T06:53:05.636Z,21.05
2023-05-31T06:55:32.538Z,21.53
2023-05-31T06:57:59.622Z,21.38
2023-05-31T07:00:26.271Z,21.62
2023-05-31T07:02:53.076Z,21.72
2023-05-31T07:05:22.053Z,22.06
2023-05-31T07:07:48.654Z,22.48
2023-05-31T07:10:15.336Z,22.89
2023-05-31T07:12:41.902Z,22.83
2023-05-31T07:15:12.077Z,22.90
2023-05-31T07:17:47.201Z,23.23
2023-05-31T07:20:14.120Z,23.50
2023-05-31T07:22:40.776Z,23.66
2023-05-31T07:25:08.029Z,24.25
2023-05-31T07:27:34.555Z,24.38
2023-05-31T07:30:01.403Z,24.24
2023-05-31T07:32:29.864Z,24.39
2023-05-31T07:35:02.429Z,23.94
2023-05-31T07:37:31.773Z,24.54
2023-05-31T07:39:58.934Z,24.55
2023-05-31T07:42:25.545Z,24.25
2023-05-31T07:44:52.116Z,24.52
2023-05-31T07:47:18.695Z,24.61
2023-05-31T07:49:45.216Z,24.70
2023-05-31T07:52:13.460Z,24.75
2023-05-31T07:54:40.000Z,24.37
2023-05-31T07:57:08.914Z,24.07
2023-05-31T07:59:35.987Z,24.04
2023-05-31T08:02:02.644Z,23.58
2023-05-31T08:04:29.716Z,23.34
2023-05-31T08:07:01.857Z,23.34
2023-05-31T08:09:28.620Z,22.94
2023-05-31T08:11:55.233Z,22.95
2023-05-31T08:14:22.157Z,23.19
2023-05-31T08:16:50.477Z,23.21
2023-05-31T08:19:17.516Z,23.33
2023-05-31T08:21:48.238Z,23.34
2023-05-31T08:24:14.829Z,23.72
2023-05-31T08:26:44.933Z,23.99
2023-05-31T08:29:20.184Z,24.24
2023-05-31T08:31:46.687Z,23.94
2023-05-31T08:34:13.316Z,24.00
2023-05-31T08:36:41.644Z,23.91
2023-05-31T08:39:10.088Z,24.60
2023-05-31T08:41:55.517Z,24.67
2023-05-31T08:44:24.871Z,24.96
2023-05-31T08:46:51.574Z,25.53
2023-05-31T08:49:21.394Z,25.14
2023-05-31T08:51:49.586Z,24.96
2023-05-31T08:54:18.243Z,25.35
2023-05-31T08:56:48.313Z,25.43
2023-05-31T08:59:17.675Z,25.03
2023-05-31T09:01:45.186Z,25.64
2023-05-31T09:04:14.290Z,26.03
2023-05-31T09:06:44.543Z,26.14
2023-05-31T09:09:11.212Z,26.08
2023-05-31T09:11:41.824Z,26.39
2023-05-31T09:14:11.870Z,26.68
2023-05-31T09:16:39.255Z,26.59
2023-05-31T09:19:07.267Z,26.64
2023-05-31T09:21:44.151Z,26.40
2023-05-31T09:24:11.566Z,26.42
2023-05-31T09:27:06.842Z,26.43
2023-05-31T09:29:33.636Z,26.66
2023-05-31T09:32:11.112Z,26.75
2023-05-31T09:34:39.525Z,26.15
2023-05-31T09:37:06.884Z,26.20
2023-05-31T09:39:33.957Z,26.34
2023-05-31T09:42:02.495Z,26.42
2023-05-31T09:44:31.355Z,26.46
2023-05-31T09:47:10.417Z,25.44
2023-05-31T09:49:37.223Z,24.77
2023-05-31T09:52:03.921Z,24.98
2023-05-31T09:54:30.800Z,24.85
2023-05-31T09:56:57.310Z,24.62
2023-05-31T09:59:23.870Z,23.76
2023-05-31T10:01:53.059Z,23.14
2023-05-31T10:04:21.139Z,23.05
2023-05-31T10:06:48.877Z,23.22
2023-05-31T10:09:17.267Z,22.94
2023-05-31T10:11:51.432Z,23.11
2023-05-31T10:14:25.243Z,22.86
2023-05-31T10:16:59.879Z,22.96
2023-05-31T10:19:38.504Z,23.24
2023-05-31T10:22:08.480Z,23.44
2023-05-31T10:24:54.107Z,23.23
2023-05-31T10:27:30.245Z,23.52
2023-05-31T10:29:58.011Z,23.43
2023-05-31T10:32:28.225Z,23.52
2023-05-31T10:34:55.094Z,23.74
2023-05-31T10:37:23.152Z,23.99
2023-05-31T10:40:14.610Z,23.39
2023-05-31T10:42:58.135Z,23.43
2023-05-31T10:45:32.719Z,23.71
2023-05-31T10:48:18.951Z,23.55
2023-05-31T10:51:00.538Z,23.48
2023-05-31T10:53:33.828Z,23.88
2023-05-31T10:56:05.646Z,24.42
2023-05-31T10:58:39.930Z,23.93
2023-05-31T11:01:12.228Z,23.82
2023-05-31T11:04:20.215Z,24.07
2023-05-31T11:06:53.116Z,24.15
2023-05-31T11:09:19.804Z,23.85
2023-05-31T11:11:56.517Z,23.68
2023-05-31T11:14:27.183Z,23.63
2023-05-31T11:16:54.590Z,24.03
2023-05-31T11:19:25.461Z,24.03
2023-05-31T11:21:53.664Z,23.81
2023-05-31T11:24:31.534Z,24.00
2023-05-31T11:27:01.625Z,24.24
2023-05-31T11:29:47.630Z,23.76
2023-05-31T11:32:21.870Z,23.92
2023-05-31T11:35:05.602Z,24.39
2023-05-31T11:37:38.391Z,24.13
2023-05-31T11:40:09.447Z,24.14
2023-05-31T11:42:40.821Z,24.13
2023-05-31T11:45:09.698Z,24.47
2023-05-31T11:47:47.591Z,24.51
2023-05-31T11:50:19.468Z,24.62
2023-05-31T11:52:46.756Z,24.28
2023-05-31T11:55:20.734Z,24.68
2023-05-31T11:57:52.732Z,24.71
2023-05-31T12:00:22.822Z,24.53
2023-05-31T12:02:54.654Z,24.46
2023-05-31T12:05:25.505Z,24.87
2023-05-31T12:07:57.022Z,24.91
2023-05-31T12:10:32.792Z,25.02
2023-05-31T12:13:02.087Z,24.81
2023-05-31T12:15:40.012Z,24.76
2023-05-31T12:18:06.627Z,25.06
2023-05-31T12:20:34.898Z,25.16
2023-05-31T12:23:16.190Z,25.11
2023-05-31T12:25:50.144Z,24.83
2023-05-31T12:28:24.522Z,24.72
2023-05-31T12:30:53.450Z,24.88
2023-05-31T12:33:21.180Z,24.90
2023-05-31T12:35:48.866Z,25.28
2023-05-31T12:38:16.629Z,25.30
2023-05-31T12:40:44.671Z,25.01
2023-05-31T12:43:17.336Z,25.37
2023-05-31T12:45:44.049Z,25.23
2023-05-31T12:48:12.029Z,25.36
2023-05-31T12:50:46.467Z,25.26
2023-05-31T12:53:14.609Z,25.50
2023-05-31T12:55:42.310Z,25.55
2023-05-31T12:58:11.200Z,25.86
2023-05-31T13:00:37.806Z,25.98
2023-05-31T13:03:05.360Z,25.89
2023-05-31T13:05:32.546Z,26.00
2023-05-31T13:07:59.732Z,26.15
2023-05-31T13:10:26.372Z,25.96
2023-05-31T13:12:54.653Z,25.96
2023-05-31T13:15:21.969Z,25.94
2023-05-31T13:17:48.520Z,26.03
2023-05-31T13:20:17.435Z,25.96
2023-05-31T13:22:46.360Z,26.24
2023-05-31T13:25:12.907Z,26.33
2023-05-31T13:27:44.249Z,25.69
2023-05-31T13:30:11.354Z,25.60
2023-05-31T13:32:37.935Z,25.29
2023-05-31T13:35:09.726Z,25.22
2023-05-31T13:37:36.636Z,25.54
2023-05-31T13:40:03.910Z,25.58
2023-05-31T13:42:30.638Z,25.39
2023-05-31T13:45:02.475Z,25.52
2023-05-31T13:47:41.078Z,25.75
2023-05-31T13:50:08.658Z,25.82
2023-05-31T13:52:35.314Z,26.00
2023-05-31T13:55:03.647Z,26.14
2023-05-31T13:57:30.209Z,26.06
2023-05-31T13:59:58.672Z,25.80
2023-05-31T14:02:27.747Z,25.88
2023-05-31T14:04:54.308Z,25.80
2023-05-31T14:07:20.835Z,25.77
2023-05-31T14:09:49.251Z,25.82
2023-05-31T14:12:15.972Z,25.84
2023-05-31T14:14:42.619Z,25.90
2023-05-31T14:17:11.060Z,26.12
2023-05-31T14:19:37.669Z,25.85
2023-05-31T14:22:04.451Z,25.88
2023-05-31T14:24:31.187Z,25.86
2023-05-31T14:26:57.782Z,25.61
2023-05-31T14:29:28.106Z,25.34
2023-05-31T14:31:54.748Z,25.22
2023-05-31T14:34:21.362Z,25.57
2023-05-31T14:36:48.149Z,25.79
2023-05-31T14:39:17.386Z,25.64
2023-05-31T14:41:44.184Z,25.69
2023-05-31T14:44:10.795Z,25.70
2023-05-31T14:46:39.161Z,25.63
2023-05-31T14:49:05.809Z,25.56
2023-05-31T14:51:34.465Z,25.68
2023-05-31T14:54:06.128Z,25.78
2023-05-31T14:56:32.725Z,25.67
2023-05-31T14:58:59.263Z,25.88
2023-05-31T15:01:26.146Z,25.79
2023-05-31T15:03:52.830Z,25.94
2023-05-31T15:06:22.931Z,25.81
2023-05-31T15:08:49.535Z,25.39
2023-05-31T15:11:16.162Z,25.45
2023-05-31T15:13:43.237Z,25.40
2023-05-31T15:16:09.961Z,25.53
2023-05-31T15:18:40.832Z,25.57
2023-05-31T15:21:08.205Z,25.42
2023-05-31T15:23:34.999Z,25.30
2023-05-31T15:26:01.544Z,25.37
2023-05-31T15:28:28.217Z,25.21
2023-05-31T15:30:59.999Z,25.24
2023-05-31T15:33:26.697Z,25.31
2023-05-31T15:35:53.212Z,25.43
2023-05-31T15:38:24.136Z,25.50
2023-05-31T15:40:50.815Z,25.71
2023-05-31T15:43:18.291Z,25.79
2023-05-31T15:45:48.559Z,25.78
2023-05-31T15:48:15.176Z,25.71
2023-05-31T15:50:41.897Z,25.40
2023-05-31T15:53:13.304Z,25.31
2023-05-31T15:55:41.891Z,25.27
2023-05-31T15:58:08.709Z,25.27
2023-05-31T16:00:37.486Z,25.21
2023-05-31T16:03:06.338Z,25.28
2023-05-31T16:05:32.970Z,25.20
2023-05-31T16:08:05.420Z,25.27
2023-05-31T16:10:32.058Z,25.05
2023-05-31T16:12:59.818Z,25.10
2023-05-31T16:15:39.339Z,25.17
2023-05-31T16:18:08.111Z,25.03
2023-05-31T16:20:35.241Z,25.07
2023-05-31T16:23:01.913Z,25.05
2023-05-31T16:25:28.459Z,25.12
2023-05-31T16:27:54.981Z,25.17
2023-05-31T16:30:25.944Z,25.10
2023-05-31T16:32:53.094Z,25.12
2023-05-31T16:35:19.718Z,25.06
2023-05-31T16:37:48.426Z,24.95
2023-05-31T16:40:14.959Z,24.92
2023-05-31T16:42:41.842Z,24.96
2023-05-31T16:45:10.524Z,24.90
2023-05-31T16:47:37.125Z,24.81
2023-05-31T16:50:04.223Z,24.82
2023-05-31T16:52:33.481Z,24.83
2023-05-31T16:57:53.938Z,24.81
2023-05-31T17:00:24.867Z,24.54
2023-05-31T17:02:51.573Z,24.61
2023-05-31T17:05:18.387Z,24.58
2023-05-31T17:07:45.011Z,24.59
2023-05-31T17:10:11.711Z,24.69
2023-05-31T17:12:45.534Z,24.59
2023-05-31T17:15:12.053Z,24.42
2023-05-31T17:17:40.872Z,24.44
2023-05-31T17:20:08.300Z,24.49
2023-05-31T17:22:35.077Z,24.47
2023-05-31T17:25:01.923Z,24.46
2023-05-31T17:27:30.169Z,24.45
2023-05-31T17:29:56.808Z,24.40
2023-05-31T17:32:23.305Z,24.27
2023-05-31T17:34:59.968Z,24.16
2023-05-31T17:37:32.342Z,24.19
2023-05-31T17:40:02.801Z,24.13
2023-05-31T17:42:29.400Z,24.06
2023-05-31T17:44:55.983Z,23.95
2023-05-31T17:47:22.606Z,23.91
2023-05-31T17:49:49.256Z,23.80
2023-05-31T17:52:15.802Z,23.77
2023-05-31T17:54:42.402Z,23.69
2023-05-31T17:57:09.422Z,23.63
2023-05-31T17:59:36.024Z,23.64
2023-05-31T18:02:02.615Z,23.62
2023-05-31T18:04:35.555Z,23.58
2023-05-31T18:07:03.899Z,23.54
2023-05-31T18:09:30.403Z,23.43
2023-05-31T18:11:58.886Z,23.47
2023-05-31T18:14:25.578Z,23.51
2023-05-31T18:16:53.851Z,23.48
2023-05-31T18:19:22.537Z,23.45
2023-05-31T18:21:49.126Z,23.41
2023-05-31T18:24:16.633Z,23.35
2023-05-31T18:26:45.472Z,23.32
2023-05-31T18:29:11.988Z,23.17
2023-05-31T18:31:38.792Z,23.12
2023-05-31T18:34:07.171Z,23.05
2023-05-31T18:36:33.902Z,22.94
2023-05-31T18:39:00.604Z,22.84
2023-05-31T18:41:29.514Z,22.80
2023-05-31T18:43:56.068Z,22.69
2023-05-31T18:46:22.660Z,22.66
2023-05-31T18:48:58.197Z,22.61
2023-05-31T18:51:27.120Z,22.50
2023-05-31T18:53:53.687Z,22.37
2023-05-31T18:56:20.591Z,22.24
2023-05-31T18:58:47.120Z,22.14
2023-05-31T19:01:14.641Z,22.03
2023-05-31T19:03:41.416Z,22.01
2023-05-31T19:06:08.322Z,21.91
2023-05-31T19:08:36.907Z,21.80
2023-05-31T19:11:04.243Z,21.53
2023-05-31T19:13:30.872Z,21.30
2023-05-31T19:15:57.493Z,21.16
2023-05-31T19:18:24.356Z,21.02
2023-05-31T19:20:51.230Z,20.94
2023-05-31T19:23:17.969Z,20.91
2023-05-31T19:25:46.588Z,20.89
2023-05-31T19:28:13.346Z,20.86
2023-05-31T19:30:41.945Z,20.85
2023-05-31T19:33:17.031Z,20.81
2023-05-31T19:35:45.916Z,20.75
2023-05-31T19:38:12.719Z,20.63
2023-05-31T19:40:39.442Z,20.49
2023-05-31T19:43:07.419Z,20.34
2023-05-31T19:45:34.573Z,20.20
2023-05-31T19:48:15.962Z,20.06
2023-05-31T19:50:44.923Z,19.86
2023-05-31T19:53:15.570Z,19.74
2023-05-31T19:55:43.884Z,19.59
2023-05-31T19:58:11.699Z,19.47
2023-05-31T20:00:38.348Z,19.33
2023-05-31T20:03:05.673Z,19.22
2023-05-31T20:05:38.838Z,19.02
2023-05-31T20:08:06.351Z,18.90
2023-05-31T20:10:32.838Z,18.83
2023-05-31T20:12:59.645Z,18.84
2023-05-31T20:15:26.799Z,18.70
2023-05-31T20:17:53.361Z,18.66
2023-05-31T20:20:21.663Z,18.64
2023-05-31T20:22:48.334Z,18.52
2023-05-31T20:25:17.068Z,18.46
2023-05-31T20:27:43.693Z,18.42
2023-05-31T20:30:10.748Z,18.37
2023-05-31T20:32:37.373Z,18.48
2023-05-31T20:35:06.505Z,18.43
2023-05-31T20:37:33.208Z,18.45
2023-05-31T20:39:59.898Z,18.42
2023-05-31T20:42:27.211Z,18.28
2023-05-31T20:44:53.899Z,18.12
2023-05-31T20:47:20.509Z,18.09
2023-05-31T20:49:47.204Z,18.25
2023-05-31T20:52:13.824Z,18.54
2023-05-31T20:54:40.344Z,18.53
2023-05-31T20:57:09.756Z,18.37
2023-05-31T20:59:36.741Z,18.25
2023-05-31T21:02:04.168Z,18.11
2023-05-31T21:04:42.319Z,17.96
2023-05-31T21:07:10.281Z,17.87
2023-05-31T21:09:36.821Z,17.81
2023-05-31T21:12:03.617Z,17.75
2023-05-31T21:14:32.344Z,17.64
2023-05-31T21:16:59.622Z,17.67
2023-05-31T21:19:26.154Z,17.66
2023-05-31T21:21:52.810Z,17.64
2023-05-31T21:24:19.402Z,17.63
2023-05-31T21:26:46.130Z,17.59
2023-05-31T21:29:12.716Z,17.65
2023-05-31T21:31:39.730Z,17.64
2023-05-31T21:34:06.749Z,17.55
2023-05-31T21:36:33.596Z,17.56
2023-05-31T21:39:00.205Z,17.54
2023-05-31T21:41:29.064Z,17.43
2023-05-31T21:43:57.845Z,17.34
2023-05-31T21:46:24.676Z,17.34
2023-05-31T21:48:51.731Z,17.31
2023-05-31T21:51:18.588Z,17.32
2023-05-31T21:53:45.413Z,17.31
2023-05-31T21:56:11.922Z,17.30
2023-05-31T21:58:40.380Z,17.34
2023-05-31T22:01:07.009Z,17.29
2023-05-31T22:03:33.589Z,17.28
2023-05-31T22:06:09.220Z,17.38
2023-05-31T22:08:37.644Z,17.31
2023-05-31T22:11:04.450Z,17.27
2023-05-31T22:13:33.530Z,17.23
2023-05-31T22:16:00.310Z,17.17
2023-05-31T22:18:32.097Z,17.09
2023-05-31T22:20:59.946Z,17.10
2023-05-31T22:23:27.243Z,17.14
2023-05-31T22:25:55.521Z,17.15
2023-05-31T22:28:30.075Z,17.16
2023-05-31T22:30:57.787Z,17.17
2023-05-31T22:33:24.435Z,17.01
2023-05-31T22:35:53.304Z,16.95
2023-05-31T22:38:19.866Z,16.89
2023-05-31T22:40:46.662Z,16.86
2023-05-31T22:43:15.460Z,16.81
2023-05-31T22:45:42.087Z,16.87
2023-05-31T22:48:11.219Z,16.82
2023-05-31T22:50:39.426Z,16.81
2023-05-31T22:53:08.268Z,16.81
2023-05-31T22:55:35.343Z,16.79
2023-05-31T22:58:04.518Z,16.81
2023-05-31T23:00:31.531Z,16.80
2023-05-31T23:02:58.238Z,16.60
2023-05-31T23:05:28.675Z,16.57
2023-05-31T23:08:02.698Z,16.55
2023-05-31T23:10:35.704Z,16.55
2023-05-31T23:13:04.846Z,16.27
2023-05-31T23:15:38.562Z,16.02
2023-05-31T23:18:10.709Z,15.94
2023-05-31T23:20:39.500Z,15.98
2023-05-31T23:23:07.642Z,15.98
2023-05-31T23:25:34.527Z,15.77
2023-05-31T23:28:03.312Z,15.99
2023-05-31T23:30:29.989Z,16.13
2023-05-31T23:32:56.740Z,16.02
2023-05-31T23:35:23.332Z,15.91
2023-05-31T23:37:51.778Z,15.88
2023-05-31T23:40:18.757Z,15.81
2023-05-31T23:42:45.671Z,15.43
2023-05-31T23:45:12.817Z,15.49
2023-05-31T23:47:43.069Z,15.71
2023-05-31T23:50:10.146Z,15.55
2023-05-31T23:52:37.367Z,15.47
2023-05-31T23:55:05.113Z,15.54
2023-05-31T23:57:31.757Z,15.67
2023-05-31T23:59:58.714Z,15.29
